createdAt,value
2022-08-11T00:00:10.462Z,55.05
2022-08-11T00:01:10.433Z,55.26
2022-08-11T00:02:14.983Z,55.35
2022-08-11T00:03:11.444Z,55.55
2022-08-11T00:04:10.431Z,55.76
2022-08-11T00:05:10.421Z,55.76
2022-08-11T00:06:10.366Z,55.88
2022-08-11T00:07:10.364Z,56.09
2022-08-11T00:08:10.329Z,56.29
2022-08-11T00:09:10.331Z,56.69
2022-08-11T00:10:10.320Z,56.69
2022-08-11T00:11:10.335Z,56.79
2022-08-11T00:12:10.273Z,56.79
2022-08-11T00:13:10.281Z,56.29
2022-08-11T00:14:10.252Z,56.19
2022-08-11T00:15:10.272Z,55.99
2022-08-11T00:16:10.224Z,55.79
2022-08-11T00:17:10.214Z,55.88
2022-08-11T00:18:10.194Z,55.79
2022-08-11T00:19:10.192Z,55.58
2022-08-11T00:20:14.462Z,55.48
2022-08-11T00:21:11.163Z,55.38
2022-08-11T00:22:10.163Z,55.18
2022-08-11T00:23:10.125Z,55.28
2022-08-11T00:24:10.123Z,55.51
2022-08-11T00:25:10.139Z,55.51
2022-08-11T00:26:10.095Z,55.61
2022-08-11T00:27:10.085Z,55.81
2022-08-11T00:28:10.054Z,55.91
2022-08-11T00:29:10.058Z,56.01
2022-08-11T00:30:10.043Z,55.91
2022-08-11T00:31:10.040Z,56.34
2022-08-11T00:32:10.210Z,56.24
2022-08-11T00:33:09.985Z,56.14
2022-08-11T00:34:09.975Z,56.04
2022-08-11T00:35:53.751Z,55.94
2022-08-11T00:36:10.945Z,56.04
2022-08-11T00:37:09.939Z,56.34
2022-08-11T00:38:09.925Z,56.24
2022-08-11T00:39:09.972Z,56.34
2022-08-11T00:40:09.915Z,56.67
2022-08-11T00:41:09.887Z,56.87
2022-08-11T00:42:09.865Z,56.87
2022-08-11T00:43:10.647Z,57.07
2022-08-11T00:44:10.836Z,56.97
2022-08-11T00:45:09.854Z,57.17
2022-08-11T00:46:09.816Z,57.28
2022-08-11T00:47:09.798Z,57.48
2022-08-11T00:48:09.785Z,57.28
2022-08-11T00:49:11.810Z,57.37
2022-08-11T00:50:09.781Z,57.37
2022-08-11T00:51:09.749Z,57.57
2022-08-11T00:52:09.728Z,57.37
2022-08-11T00:53:09.755Z,57.57
2022-08-11T00:54:09.719Z,57.78
2022-08-11T00:55:09.830Z,57.57
2022-08-11T00:56:09.679Z,57.90
2022-08-11T00:57:36.978Z,57.98
2022-08-11T00:58:10.648Z,57.78
2022-08-11T00:59:32.208Z,57.57
2022-08-11T01:00:10.637Z,57.28
2022-08-11T01:01:09.726Z,57.37
2022-08-11T01:02:09.588Z,57.48
2022-08-11T01:03:09.578Z,57.57
2022-08-11T01:04:09.571Z,57.78
2022-08-11T01:05:09.569Z,57.68
2022-08-11T01:06:09.536Z,57.68
2022-08-11T01:07:09.529Z,57.68
2022-08-11T01:08:09.537Z,57.57
2022-08-11T01:09:09.504Z,57.68
2022-08-11T01:10:10.501Z,57.57
2022-08-11T01:11:09.473Z,57.78
2022-08-11T01:12:09.450Z,57.88
2022-08-11T01:13:09.479Z,58.11
2022-08-11T01:14:09.429Z,58.21
2022-08-11T01:15:09.421Z,58.01
2022-08-11T01:16:09.427Z,58.01
2022-08-11T01:17:09.555Z,58.31
2022-08-11T01:18:09.390Z,58.41
2022-08-11T01:19:09.361Z,58.41
2022-08-11T01:20:48.123Z,58.71
2022-08-11T01:21:10.351Z,58.91
2022-08-11T01:22:13.960Z,58.91
2022-08-11T01:23:09.313Z,58.81
2022-08-11T01:24:09.301Z,59.01
2022-08-11T01:25:09.291Z,59.01
2022-08-11T01:26:09.289Z,59.01
2022-08-11T01:27:18.871Z,59.01
2022-08-11T01:28:10.243Z,59.22
2022-08-11T01:29:09.221Z,59.42
2022-08-11T01:30:09.221Z,59.64
2022-08-11T01:31:09.205Z,59.44
2022-08-11T01:32:09.264Z,59.44
2022-08-11T01:33:09.189Z,59.34
2022-08-11T01:34:09.160Z,59.34
2022-08-11T01:35:09.140Z,59.24
2022-08-11T01:36:09.151Z,59.24
2022-08-11T01:37:09.103Z,59.44
2022-08-11T01:38:09.102Z,59.24
2022-08-11T01:39:09.152Z,59.24
2022-08-11T01:40:09.072Z,59.24
2022-08-11T01:41:09.073Z,59.34
2022-08-11T01:42:09.051Z,59.34
2022-08-11T01:43:09.023Z,59.24
2022-08-11T01:44:12.722Z,59.44
2022-08-11T01:45:09.039Z,59.34
2022-08-11T01:46:09.004Z,59.64
2022-08-11T01:47:08.982Z,59.75
2022-08-11T01:48:08.971Z,59.64
2022-08-11T01:50:05.870Z,59.55
2022-08-11T01:50:10.761Z,59.84
2022-08-11T01:51:08.933Z,59.95
2022-08-11T01:52:09.905Z,60.05
2022-08-11T01:53:08.896Z,59.75
2022-08-11T01:54:08.935Z,59.64
2022-08-11T01:55:08.863Z,60.05
2022-08-11T01:56:08.875Z,60.25
2022-08-11T01:57:08.834Z,60.25
2022-08-11T01:58:08.854Z,60.15
2022-08-11T01:59:08.815Z,60.25
2022-08-11T02:00:08.813Z,60.25
2022-08-11T02:01:08.886Z,60.25
2022-08-11T02:02:08.773Z,60.45
2022-08-11T02:03:08.777Z,60.78
2022-08-11T02:04:08.775Z,60.78
2022-08-11T02:05:08.714Z,60.98
2022-08-11T02:06:08.723Z,60.98
2022-08-11T02:07:08.821Z,60.88
2022-08-11T02:08:08.695Z,60.88
2022-08-11T02:09:08.707Z,60.78
2022-08-11T02:10:08.693Z,60.98
2022-08-11T02:11:08.643Z,60.98
2022-08-11T02:12:08.682Z,61.29
2022-08-11T02:13:08.616Z,61.29
2022-08-11T02:14:08.613Z,61.18
2022-08-11T02:15:08.622Z,61.18
2022-08-11T02:16:08.599Z,61.29
2022-08-11T02:17:08.595Z,61.41
2022-08-11T02:18:08.557Z,61.52
2022-08-11T02:19:08.547Z,61.61
2022-08-11T02:20:08.529Z,61.41
2022-08-11T02:21:08.558Z,61.61
2022-08-11T02:22:08.516Z,61.52
2022-08-11T02:23:08.487Z,61.52
2022-08-11T02:24:08.476Z,61.61
2022-08-11T02:25:08.456Z,61.52
2022-08-11T02:26:08.455Z,61.41
2022-08-11T02:27:08.452Z,61.61
2022-08-11T02:28:08.426Z,61.82
2022-08-11T02:29:08.397Z,61.72
2022-08-11T02:30:08.391Z,61.61
2022-08-11T02:31:09.432Z,61.72
2022-08-11T02:32:24.981Z,61.82
2022-08-11T02:33:09.348Z,62.02
2022-08-11T02:34:08.338Z,62.12
2022-08-11T02:35:08.319Z,62.02
2022-08-11T02:36:08.309Z,61.92
2022-08-11T02:37:08.306Z,62.12
2022-08-11T02:38:08.286Z,61.92
2022-08-11T02:39:08.321Z,61.92
2022-08-11T02:40:08.260Z,62.15
2022-08-11T02:41:08.237Z,62.15
2022-08-11T02:42:08.247Z,61.95
2022-08-11T02:43:09.219Z,62.05
2022-08-11T02:44:08.201Z,62.05
2022-08-11T02:45:08.188Z,62.05
2022-08-11T02:46:08.182Z,61.95
2022-08-11T02:47:09.179Z,61.85
2022-08-11T02:48:08.150Z,61.95
2022-08-11T02:49:08.172Z,62.08
2022-08-11T02:50:08.133Z,62.28
2022-08-11T02:51:08.101Z,62.38
2022-08-11T02:52:08.109Z,62.59
2022-08-11T02:53:08.081Z,62.68
2022-08-11T02:54:08.061Z,62.88
2022-08-11T02:55:08.056Z,62.92
2022-08-11T02:56:08.033Z,63.02
2022-08-11T02:57:11.491Z,63.02
2022-08-11T02:58:08.011Z,63.12
2022-08-11T02:59:08.002Z,63.22
2022-08-11T03:00:07.989Z,63.22
2022-08-11T03:01:07.974Z,63.65
2022-08-11T03:02:08.056Z,63.62
2022-08-11T03:03:07.953Z,63.55
2022-08-11T03:04:07.926Z,63.52
2022-08-11T03:05:07.922Z,63.52
2022-08-11T03:06:07.892Z,63.52
2022-08-11T03:07:28.007Z,63.52
2022-08-11T03:08:08.874Z,63.62
2022-08-11T03:09:07.872Z,63.62
2022-08-11T03:10:07.863Z,63.62
2022-08-11T03:11:07.846Z,63.82
2022-08-11T03:12:07.832Z,63.73
2022-08-11T03:13:07.814Z,63.73
2022-08-11T03:14:07.792Z,63.93
2022-08-11T03:15:07.787Z,64.16
2022-08-11T03:16:07.765Z,64.16
2022-08-11T03:17:07.772Z,63.96
2022-08-11T03:18:07.743Z,63.85
2022-08-11T03:19:07.731Z,63.96
2022-08-11T03:20:07.716Z,64.16
2022-08-11T03:21:07.704Z,64.36
2022-08-11T03:22:07.685Z,63.96
2022-08-11T03:23:19.769Z,63.76
2022-08-11T03:24:08.660Z,63.96
2022-08-11T03:25:12.380Z,64.06
2022-08-11T03:26:08.621Z,64.29
2022-08-11T03:27:07.613Z,64.79
2022-08-11T03:28:07.602Z,64.90
2022-08-11T03:29:07.584Z,64.90
2022-08-11T03:30:07.575Z,64.90
2022-08-11T03:31:07.551Z,64.79
2022-08-11T03:32:15.681Z,64.79
2022-08-11T03:33:07.517Z,64.79
2022-08-11T03:34:08.366Z,65.10
2022-08-11T03:35:07.476Z,65.13
2022-08-11T03:36:07.457Z,65.13
2022-08-11T03:37:17.348Z,65.33
2022-08-11T03:38:08.445Z,65.33
2022-08-11T03:39:07.463Z,65.23
2022-08-11T03:40:07.456Z,65.23
2022-08-11T03:41:50.241Z,65.33
2022-08-11T03:42:10.241Z,65.64
2022-08-11T03:43:07.386Z,65.64
2022-08-11T03:44:07.347Z,65.43
2022-08-11T03:45:07.367Z,65.43
2022-08-11T03:46:07.347Z,65.13
2022-08-11T03:47:07.315Z,65.23
2022-08-11T03:48:07.320Z,65.03
2022-08-11T03:49:07.289Z,65.23
2022-08-11T03:50:07.268Z,65.33
2022-08-11T03:51:07.268Z,65.33
2022-08-11T03:52:07.244Z,65.33
2022-08-11T03:53:07.229Z,65.23
2022-08-11T03:54:07.238Z,65.23
2022-08-11T03:55:07.224Z,65.23
2022-08-11T03:56:07.214Z,65.03
2022-08-11T03:57:07.179Z,64.83
2022-08-11T03:58:07.162Z,64.73
2022-08-11T03:59:07.169Z,64.62
2022-08-11T04:00:07.137Z,64.32
2022-08-11T04:01:07.137Z,64.02
2022-08-11T04:02:07.113Z,63.92
2022-08-11T04:03:07.094Z,63.81
2022-08-11T04:04:07.103Z,63.92
2022-08-11T04:05:07.071Z,63.92
2022-08-11T04:06:07.070Z,64.12
2022-08-11T04:07:07.048Z,64.02
2022-08-11T04:08:07.028Z,64.22
2022-08-11T04:09:07.050Z,64.32
2022-08-11T04:10:07.010Z,64.45
2022-08-11T04:11:06.989Z,64.65
2022-08-11T04:12:06.998Z,64.76
2022-08-11T04:13:06.979Z,64.76
2022-08-11T04:14:06.966Z,64.76
2022-08-11T04:15:06.939Z,64.55
2022-08-11T04:16:12.548Z,64.86
2022-08-11T04:17:07.943Z,64.99
2022-08-11T04:18:06.907Z,65.19
2022-08-11T04:19:06.917Z,65.19
2022-08-11T04:20:06.894Z,65.09
2022-08-11T04:21:06.867Z,65.39
2022-08-11T04:22:06.853Z,65.26
2022-08-11T04:23:06.846Z,65.16
2022-08-11T04:24:34.402Z,65.29
2022-08-11T04:25:07.804Z,65.50
2022-08-11T04:26:16.085Z,65.70
2022-08-11T04:27:08.199Z,65.90
2022-08-11T04:28:07.765Z,66.10
2022-08-11T04:29:09.582Z,66.20
2022-08-11T04:30:09.212Z,66.10
2022-08-11T04:31:07.724Z,66.10
2022-08-11T04:32:06.730Z,66.00
2022-08-11T04:33:06.723Z,66.00
2022-08-11T04:34:06.708Z,66.00
2022-08-11T04:35:06.675Z,66.20
2022-08-11T04:36:06.655Z,66.20
2022-08-11T04:37:06.655Z,66.30
2022-08-11T04:38:06.633Z,66.30
2022-08-11T04:39:06.659Z,65.80
2022-08-11T04:40:06.604Z,65.47
2022-08-11T04:41:06.615Z,65.36
2022-08-11T04:42:06.589Z,65.26
2022-08-11T04:43:06.600Z,65.29
2022-08-11T04:44:06.901Z,65.29
2022-08-11T04:45:06.554Z,65.39
2022-08-11T04:46:06.531Z,65.50
2022-08-11T04:47:06.515Z,65.59
2022-08-11T04:48:06.506Z,65.70
2022-08-11T04:49:06.525Z,65.70
2022-08-11T04:50:06.466Z,65.90
2022-08-11T04:51:17.080Z,65.90
2022-08-11T04:52:07.436Z,65.90
2022-08-11T04:53:06.436Z,66.20
2022-08-11T04:54:06.447Z,65.90
2022-08-11T04:55:06.406Z,66.10
2022-08-11T04:56:06.387Z,66.20
2022-08-11T04:57:06.377Z,66.20
2022-08-11T04:58:06.366Z,66.07
2022-08-11T04:59:06.381Z,66.07
2022-08-11T05:00:06.349Z,66.17
2022-08-11T05:01:06.385Z,66.17
2022-08-11T05:02:06.339Z,66.17
2022-08-11T05:03:07.305Z,66.07
2022-08-11T05:04:06.300Z,65.87
2022-08-11T05:05:06.289Z,65.97
2022-08-11T05:06:06.258Z,65.97
2022-08-11T05:07:06.249Z,65.73
2022-08-11T05:08:06.229Z,65.94
2022-08-11T05:09:06.235Z,65.73
2022-08-11T05:10:06.303Z,65.73
2022-08-11T05:11:06.185Z,65.64
2022-08-11T05:12:06.170Z,65.43
2022-08-11T05:13:06.187Z,65.30
2022-08-11T05:14:06.187Z,65.30
2022-08-11T05:15:06.149Z,65.20
2022-08-11T05:16:06.190Z,65.20
2022-08-11T05:17:06.126Z,65.20
2022-08-11T05:18:06.098Z,65.20
2022-08-11T05:19:06.111Z,65.20
2022-08-11T05:20:06.070Z,65.50
2022-08-11T05:21:06.058Z,65.70
2022-08-11T05:22:06.039Z,65.70
2022-08-11T05:23:06.038Z,65.81
2022-08-11T05:24:06.030Z,66.01
2022-08-11T05:25:06.009Z,65.81
2022-08-11T05:26:43.096Z,66.01
2022-08-11T05:27:12.871Z,65.91
2022-08-11T05:28:06.959Z,65.61
2022-08-11T05:29:19.440Z,65.70
2022-08-11T05:30:06.941Z,65.50
2022-08-11T05:31:05.920Z,65.20
2022-08-11T05:32:05.908Z,65.20
2022-08-11T05:33:05.901Z,65.10
2022-08-11T05:34:05.901Z,65.00
2022-08-11T05:35:05.888Z,65.00
2022-08-11T05:36:05.860Z,64.90
2022-08-11T05:37:25.116Z,64.76
2022-08-11T05:38:06.841Z,64.67
2022-08-11T05:39:05.851Z,64.67
2022-08-11T05:40:05.900Z,64.67
2022-08-11T05:41:05.800Z,64.87
2022-08-11T05:42:05.783Z,65.07
2022-08-11T05:43:05.769Z,64.67
2022-08-11T05:44:21.369Z,64.56
2022-08-11T05:45:15.290Z,64.46
2022-08-11T05:46:10.147Z,64.46
2022-08-11T05:47:06.722Z,64.46
2022-08-11T05:48:05.702Z,64.56
2022-08-11T05:49:05.722Z,64.43
2022-08-11T05:50:05.680Z,64.43
2022-08-11T05:51:10.389Z,64.53
2022-08-11T05:52:16.267Z,64.64
2022-08-11T05:53:09.256Z,64.73
2022-08-11T05:54:06.642Z,64.84
2022-08-11T05:55:07.377Z,64.73
2022-08-11T05:56:05.593Z,64.73
2022-08-11T05:57:05.583Z,64.84
2022-08-11T05:58:05.563Z,64.43
2022-08-11T05:59:05.573Z,64.50
2022-08-11T06:00:05.587Z,64.61
2022-08-11T06:01:05.598Z,64.90
2022-08-11T06:02:05.575Z,64.70
2022-08-11T06:03:05.501Z,64.40
2022-08-11T06:04:05.513Z,64.30
2022-08-11T06:05:05.476Z,64.30
2022-08-11T06:06:05.465Z,64.10
2022-08-11T06:07:05.445Z,64.30
2022-08-11T06:08:05.443Z,64.40
2022-08-11T06:09:05.434Z,64.30
2022-08-11T06:10:05.417Z,64.10
2022-08-11T06:11:05.394Z,64.00
2022-08-11T06:12:05.388Z,64.20
2022-08-11T06:13:05.396Z,63.96
2022-08-11T06:14:05.374Z,63.76
2022-08-11T06:15:05.346Z,63.87
2022-08-11T06:16:07.118Z,63.36
2022-08-11T06:17:05.315Z,63.46
2022-08-11T06:18:05.295Z,63.43
2022-08-11T06:19:05.313Z,63.43
2022-08-11T06:20:07.197Z,63.53
2022-08-11T06:21:05.290Z,63.84
2022-08-11T06:22:05.247Z,63.73
2022-08-11T06:23:05.235Z,63.13
2022-08-11T06:24:05.259Z,63.40
2022-08-11T06:25:05.224Z,63.50
2022-08-11T06:26:05.188Z,63.50
2022-08-11T06:27:13.631Z,63.60
2022-08-11T06:28:06.163Z,63.70
2022-08-11T06:29:05.176Z,64.01
2022-08-11T06:30:05.134Z,64.07
2022-08-11T06:31:05.127Z,64.38
2022-08-11T06:32:05.107Z,63.67
2022-08-11T06:33:05.208Z,63.17
2022-08-11T06:34:05.098Z,63.87
2022-08-11T06:35:05.073Z,63.98
2022-08-11T06:36:05.047Z,63.85
2022-08-11T06:37:05.047Z,63.45
2022-08-11T06:38:05.027Z,63.34
2022-08-11T06:39:05.026Z,63.34
2022-08-11T06:40:04.996Z,63.34
2022-08-11T06:41:04.985Z,62.81
2022-08-11T06:42:04.977Z,62.41
2022-08-11T06:43:04.958Z,62.91
2022-08-11T06:44:05.595Z,62.71
2022-08-11T06:45:04.926Z,62.88
2022-08-11T06:46:04.944Z,62.98
2022-08-11T06:47:04.897Z,62.88
2022-08-11T06:48:04.905Z,61.87
2022-08-11T06:49:04.889Z,61.94
2022-08-11T06:50:04.875Z,61.44
2022-08-11T06:51:04.848Z,61.94
2022-08-11T06:52:04.910Z,62.05
2022-08-11T06:53:04.830Z,61.85
2022-08-11T06:54:05.816Z,60.91
2022-08-11T06:55:04.808Z,60.41
2022-08-11T06:56:04.777Z,60.41
2022-08-11T06:58:05.973Z,60.18
2022-08-11T06:59:04.780Z,60.78
2022-08-11T07:00:04.752Z,60.98
2022-08-11T07:01:04.917Z,60.48
2022-08-11T07:02:04.701Z,59.65
2022-08-11T07:03:04.699Z,58.75
2022-08-11T07:04:04.687Z,58.24
2022-08-11T07:05:04.672Z,58.64
2022-08-11T07:06:04.674Z,57.41
2022-08-11T07:07:04.660Z,58.01
2022-08-11T07:08:33.199Z,57.81
2022-08-11T07:09:05.622Z,57.41
2022-08-11T07:10:04.599Z,57.48
2022-08-11T07:11:04.606Z,56.28
2022-08-11T07:12:04.575Z,56.38
2022-08-11T07:13:04.563Z,56.98
2022-08-11T07:14:04.574Z,57.06
2022-08-11T07:15:04.523Z,56.85
2022-08-11T07:16:12.315Z,56.96
2022-08-11T07:17:05.492Z,56.96
2022-08-11T07:18:04.482Z,56.52
2022-08-11T07:19:04.478Z,56.52
2022-08-11T07:20:04.464Z,56.43
2022-08-11T07:21:04.432Z,55.90
2022-08-11T07:22:05.422Z,54.70
2022-08-11T07:23:04.412Z,55.30
2022-08-11T07:24:04.421Z,55.50
2022-08-11T07:25:04.379Z,55.00
2022-08-11T07:26:04.376Z,54.50
2022-08-11T07:27:04.354Z,55.40
2022-08-11T07:28:04.344Z,55.47
2022-08-11T07:29:04.343Z,55.57
2022-08-11T07:30:04.384Z,55.37
2022-08-11T07:31:04.293Z,55.07
2022-08-11T07:32:04.303Z,53.77
2022-08-11T07:33:04.273Z,54.24
2022-08-11T07:34:06.375Z,54.55
2022-08-11T07:35:05.243Z,54.55
2022-08-11T07:36:04.258Z,54.35
2022-08-11T07:37:04.223Z,54.64
2022-08-11T07:38:06.857Z,54.35
2022-08-11T07:39:04.205Z,54.42
2022-08-11T07:40:04.187Z,54.52
2022-08-11T07:41:04.184Z,54.32
2022-08-11T07:42:04.154Z,54.02
2022-08-11T07:43:04.135Z,53.72
2022-08-11T07:44:04.145Z,53.32
2022-08-11T07:45:04.115Z,53.12
2022-08-11T07:46:04.095Z,53.22
2022-08-11T07:47:04.086Z,52.69
2022-08-11T07:48:04.084Z,52.39
2022-08-11T07:49:04.075Z,52.89
2022-08-11T07:50:04.056Z,53.19
2022-08-11T07:51:04.037Z,52.89
2022-08-11T07:52:04.025Z,53.19
2022-08-11T07:53:04.004Z,53.09
2022-08-11T07:54:17.160Z,52.49
2022-08-11T07:55:04.975Z,52.29
2022-08-11T07:56:03.966Z,52.69
2022-08-11T07:57:09.435Z,52.37
2022-08-11T07:58:16.500Z,51.57
2022-08-11T07:59:08.415Z,50.77
2022-08-11T08:00:05.094Z,51.67
2022-08-11T08:01:04.019Z,51.87
2022-08-11T08:02:04.941Z,52.37
2022-08-11T08:03:03.873Z,52.47
2022-08-11T08:04:03.862Z,52.07
2022-08-11T08:05:03.858Z,52.07
2022-08-11T08:06:03.835Z,51.97
2022-08-11T08:07:03.819Z,51.84
2022-08-11T08:08:03.809Z,51.45
2022-08-11T08:09:03.790Z,51.25
2022-08-11T08:10:03.797Z,51.25
2022-08-11T08:11:03.759Z,51.75
2022-08-11T08:12:03.759Z,51.82
2022-08-11T08:13:04.749Z,51.72
2022-08-11T08:14:03.731Z,50.82
2022-08-11T08:15:03.730Z,50.82
2022-08-11T08:16:03.701Z,49.90
2022-08-11T08:17:03.681Z,50.00
2022-08-11T08:18:09.237Z,50.30
2022-08-11T08:19:04.650Z,49.50
2022-08-11T08:20:03.660Z,48.70
2022-08-11T08:21:03.629Z,48.20
2022-08-11T08:22:34.621Z,47.90
2022-08-11T08:23:04.601Z,48.08
2022-08-11T08:24:03.593Z,48.18
2022-08-11T08:25:03.599Z,48.08
2022-08-11T08:26:03.570Z,47.48
2022-08-11T08:27:03.551Z,47.28
2022-08-11T08:28:03.542Z,47.08
2022-08-11T08:29:03.529Z,46.76
2022-08-11T08:30:03.534Z,46.96
2022-08-11T08:31:03.492Z,47.26
2022-08-11T08:32:03.492Z,47.86
2022-08-11T08:33:03.544Z,46.94
2022-08-11T08:34:03.463Z,46.64
2022-08-11T08:35:03.469Z,46.44
2022-08-11T08:36:03.441Z,46.31
2022-08-11T08:37:03.420Z,46.72
2022-08-11T08:38:04.412Z,46.31
2022-08-11T08:39:03.391Z,45.62
2022-08-11T08:40:03.403Z,45.60
2022-08-11T08:41:03.363Z,45.79
2022-08-11T08:42:03.353Z,45.60
2022-08-11T08:43:03.333Z,45.40
2022-08-11T08:44:27.809Z,45.70
2022-08-11T08:45:04.324Z,45.70
2022-08-11T08:46:03.301Z,45.60
2022-08-11T08:47:03.281Z,45.37
2022-08-11T08:48:03.273Z,45.37
2022-08-11T08:49:03.254Z,45.28
2022-08-11T08:50:03.265Z,45.48
2022-08-11T08:51:03.224Z,44.48
2022-08-11T08:52:29.459Z,44.98
2022-08-11T08:53:04.197Z,44.88
2022-08-11T08:54:03.193Z,44.78
2022-08-11T08:55:03.176Z,44.88
2022-08-11T08:56:03.185Z,43.59
2022-08-11T08:57:03.146Z,43.88
2022-08-11T08:58:03.160Z,44.28
2022-08-11T08:59:03.135Z,44.66
2022-08-11T09:00:03.120Z,44.85
2022-08-11T09:01:03.149Z,44.96
2022-08-11T09:02:03.078Z,45.06
2022-08-11T09:03:22.797Z,44.96
2022-08-11T09:04:11.245Z,43.84
2022-08-11T09:05:04.239Z,43.24
2022-08-11T09:06:03.087Z,43.74
2022-08-11T09:07:03.008Z,44.04
2022-08-11T09:08:03.057Z,44.84
2022-08-11T09:09:03.204Z,45.33
2022-08-11T09:10:02.978Z,45.03
2022-08-11T09:11:03.259Z,45.23
2022-08-11T09:12:02.949Z,44.54
2022-08-11T09:13:03.157Z,43.62
2022-08-11T09:14:06.594Z,43.52
2022-08-11T09:15:02.929Z,42.72
2022-08-11T09:16:02.927Z,42.80
2022-08-11T09:17:02.879Z,42.61
2022-08-11T09:18:02.869Z,43.30
2022-08-11T09:19:02.861Z,43.01
2022-08-11T09:20:02.839Z,43.10
2022-08-11T09:21:02.851Z,43.01
2022-08-11T09:22:02.812Z,43.28
2022-08-11T09:23:54.520Z,42.99
2022-08-11T09:24:12.164Z,43.18
2022-08-11T09:25:03.770Z,42.99
2022-08-11T09:26:02.790Z,43.18
2022-08-11T09:27:02.749Z,42.79
2022-08-11T09:28:02.758Z,42.49
2022-08-11T09:29:02.722Z,41.89
2022-08-11T09:30:02.702Z,42.58
2022-08-11T09:31:03.042Z,42.29
2022-08-11T09:32:02.694Z,42.17
2022-08-11T09:33:02.670Z,42.17
2022-08-11T09:34:02.651Z,42.07
2022-08-11T09:35:02.632Z,42.27
2022-08-11T09:36:02.651Z,42.07
2022-08-11T09:37:02.609Z,42.17
2022-08-11T09:38:03.072Z,41.38
2022-08-11T09:39:02.583Z,41.87
2022-08-11T09:40:02.573Z,42.25
2022-08-11T09:41:02.562Z,41.06
2022-08-11T09:42:04.151Z,40.66
2022-08-11T09:43:02.529Z,41.46
2022-08-11T09:44:04.357Z,41.55
2022-08-11T09:45:02.641Z,41.85
2022-08-11T09:46:02.513Z,41.95
2022-08-11T09:47:02.474Z,41.36
2022-08-11T09:48:02.463Z,41.46
2022-08-11T09:49:02.479Z,42.05
2022-08-11T09:50:02.640Z,41.16
2022-08-11T09:51:02.441Z,41.36
2022-08-11T09:52:05.600Z,41.36
2022-08-11T09:53:36.456Z,41.55
2022-08-11T09:54:03.986Z,41.44
2022-08-11T09:55:02.399Z,41.93
2022-08-11T09:56:02.375Z,41.33
2022-08-11T09:57:05.380Z,40.25
2022-08-11T09:58:02.328Z,40.44
2022-08-11T09:59:02.307Z,41.04
2022-08-11T10:00:12.299Z,40.94
2022-08-11T10:01:03.436Z,40.55
2022-08-11T10:02:02.276Z,41.73
2022-08-11T10:03:02.263Z,40.55
2022-08-11T10:04:02.247Z,39.75
2022-08-11T10:05:02.239Z,40.64
2022-08-11T10:06:07.334Z,40.94
2022-08-11T10:07:04.468Z,41.63
2022-08-11T10:08:02.198Z,41.63
2022-08-11T10:09:02.281Z,40.64
2022-08-11T10:10:02.175Z,40.05
2022-08-11T10:11:02.178Z,40.05
2022-08-11T10:12:02.148Z,40.44
2022-08-11T10:13:02.133Z,40.84
2022-08-11T10:14:32.052Z,41.04
2022-08-11T10:15:03.105Z,40.74
2022-08-11T10:16:15.953Z,40.66
2022-08-11T10:17:03.082Z,40.74
2022-08-11T10:18:03.043Z,39.65
2022-08-11T10:19:02.208Z,39.95
2022-08-11T10:20:05.301Z,39.43
2022-08-11T10:21:02.040Z,39.53
2022-08-11T10:22:02.020Z,39.83
2022-08-11T10:23:02.000Z,39.51
2022-08-11T10:24:05.615Z,39.71
2022-08-11T10:25:01.974Z,39.22
2022-08-11T10:26:01.992Z,39.29
2022-08-11T10:27:01.950Z,39.69
2022-08-11T10:28:30.343Z,39.20
2022-08-11T10:29:12.989Z,38.40
2022-08-11T10:30:02.899Z,37.49
2022-08-11T10:31:01.899Z,36.71
2022-08-11T10:32:04.371Z,37.20
2022-08-11T10:33:01.859Z,36.88
2022-08-11T10:34:02.035Z,37.18
2022-08-11T10:35:01.978Z,36.69
2022-08-11T10:36:01.907Z,36.49
2022-08-11T10:37:01.820Z,35.99
2022-08-11T10:38:07.783Z,35.50
2022-08-11T10:39:02.779Z,35.30
2022-08-11T10:40:01.783Z,36.10
2022-08-11T10:41:01.781Z,36.69
2022-08-11T10:42:06.491Z,35.98
2022-08-11T10:43:03.000Z,37.07
2022-08-11T10:44:03.982Z,36.37
2022-08-11T10:45:01.712Z,36.08
2022-08-11T10:46:01.729Z,35.68
2022-08-11T10:47:01.684Z,36.08
2022-08-11T10:48:01.674Z,35.17
2022-08-11T10:49:01.878Z,35.57
2022-08-11T10:50:01.655Z,35.96
2022-08-11T10:51:01.655Z,35.76
2022-08-11T10:52:01.638Z,36.75
2022-08-11T10:53:01.604Z,36.46
2022-08-11T10:54:01.596Z,35.76
2022-08-11T10:55:01.584Z,36.06
2022-08-11T10:56:01.647Z,35.47
2022-08-11T10:57:01.576Z,36.46
2022-08-11T10:58:04.118Z,35.86
2022-08-11T10:59:03.969Z,36.55
2022-08-11T11:00:01.526Z,35.96
2022-08-11T11:01:01.591Z,36.25
2022-08-11T11:02:01.507Z,36.16
2022-08-11T11:03:23.412Z,36.25
2022-08-11T11:04:02.459Z,36.14
2022-08-11T11:05:01.445Z,35.45
2022-08-11T11:06:12.840Z,35.55
2022-08-11T11:07:02.429Z,35.85
2022-08-11T11:08:01.399Z,35.25
2022-08-11T11:09:04.209Z,35.64
2022-08-11T11:10:01.379Z,35.14
2022-08-11T11:11:01.360Z,35.33
2022-08-11T11:12:01.371Z,36.02
2022-08-11T11:13:01.342Z,34.64
2022-08-11T11:14:01.325Z,35.43
2022-08-11T11:15:01.329Z,35.33
2022-08-11T11:16:01.304Z,35.63
2022-08-11T11:17:01.312Z,35.83
2022-08-11T11:18:01.286Z,35.33
2022-08-11T11:19:01.485Z,35.14
2022-08-11T11:20:01.270Z,35.53
2022-08-11T11:21:01.231Z,35.53
2022-08-11T11:22:01.240Z,36.42
2022-08-11T11:23:01.224Z,36.91
2022-08-11T11:24:01.204Z,35.73
2022-08-11T11:25:01.180Z,35.73
2022-08-11T11:26:01.151Z,35.71
2022-08-11T11:27:01.163Z,35.14
2022-08-11T11:28:01.131Z,36.21
2022-08-11T11:29:01.120Z,36.00
2022-08-11T11:30:01.105Z,36.30
2022-08-11T11:31:01.093Z,35.81
2022-08-11T11:32:01.152Z,35.31
2022-08-11T11:33:01.089Z,35.71
2022-08-11T11:34:11.920Z,35.71
2022-08-11T11:35:02.045Z,35.22
2022-08-11T11:36:01.033Z,35.41
2022-08-11T11:37:01.032Z,35.22
2022-08-11T11:38:04.104Z,35.91
2022-08-11T11:39:01.004Z,36.11
2022-08-11T11:40:00.966Z,36.80
2022-08-11T11:41:01.974Z,35.61
2022-08-11T11:42:00.976Z,35.41
2022-08-11T11:43:00.964Z,35.61
2022-08-11T11:44:01.514Z,35.22
2022-08-11T11:45:01.616Z,36.11
2022-08-11T11:46:00.905Z,36.00
2022-08-11T11:47:00.897Z,35.79
2022-08-11T11:48:00.856Z,34.61
2022-08-11T11:49:00.872Z,35.30
2022-08-11T11:50:00.835Z,35.60
2022-08-11T11:51:00.863Z,35.60
2022-08-11T11:52:00.827Z,35.50
2022-08-11T11:53:00.795Z,34.99
2022-08-11T11:54:00.801Z,34.89
2022-08-11T11:55:00.770Z,34.79
2022-08-11T11:56:00.766Z,34.89
2022-08-11T11:57:00.784Z,35.18
2022-08-11T11:58:02.818Z,34.69
2022-08-11T11:59:00.724Z,34.30
2022-08-11T12:00:00.754Z,34.67
2022-08-11T12:01:00.689Z,33.89
2022-08-11T12:02:00.696Z,34.08
2022-08-11T12:03:01.685Z,34.67
2022-08-11T12:04:00.650Z,34.58
2022-08-11T12:05:00.655Z,34.48
2022-08-11T12:06:00.621Z,34.18
2022-08-11T12:07:00.608Z,34.97
2022-08-11T12:08:10.325Z,35.46
2022-08-11T12:09:01.589Z,34.67
2022-08-11T12:10:00.569Z,35.27
2022-08-11T12:11:00.565Z,34.46
2022-08-11T12:12:00.543Z,34.36
2022-08-11T12:13:00.556Z,33.67
2022-08-11T12:14:00.519Z,33.49
2022-08-11T12:15:00.531Z,33.79
2022-08-11T12:16:32.298Z,34.67
2022-08-11T12:17:01.492Z,33.29
2022-08-11T12:18:00.474Z,33.89
2022-08-11T12:19:00.463Z,32.90
2022-08-11T12:20:01.732Z,34.38
2022-08-11T12:21:00.431Z,33.89
2022-08-11T12:22:01.161Z,34.38
2022-08-11T12:23:00.437Z,33.97
2022-08-11T12:24:04.221Z,33.38
2022-08-11T12:25:00.383Z,33.48
2022-08-11T12:26:25.351Z,33.38
2022-08-11T12:27:16.452Z,33.97
2022-08-11T12:28:01.352Z,32.98
2022-08-11T12:29:00.330Z,33.97
2022-08-11T12:30:00.328Z,33.58
2022-08-11T12:31:00.301Z,33.38
2022-08-11T12:32:00.292Z,33.48
2022-08-11T12:33:00.297Z,33.48
2022-08-11T12:34:00.254Z,32.98
2022-08-11T12:35:00.278Z,33.38
2022-08-11T12:36:01.107Z,31.80
2022-08-11T12:37:00.215Z,32.10
2022-08-11T12:38:03.703Z,33.67
2022-08-11T12:39:01.207Z,32.48
2022-08-11T12:40:10.872Z,31.79
2022-08-11T12:41:16.857Z,32.48
2022-08-11T12:42:01.177Z,32.87
2022-08-11T12:43:00.177Z,33.17
2022-08-11T12:44:00.126Z,33.95
2022-08-11T12:45:00.138Z,33.07
2022-08-11T12:46:00.108Z,33.64
2022-08-11T12:47:00.093Z,32.46
2022-08-11T12:48:57.292Z,32.76
2022-08-11T12:49:02.432Z,33.25
2022-08-11T12:50:00.056Z,32.84
2022-08-11T12:51:00.038Z,32.45
2022-08-11T12:52:12.417Z,32.54
2022-08-11T12:53:01.029Z,32.45